Time;durP1;ratioP1;P1;durP2;ratioP2;P2;SDS_P1;SDS_P2;PMS_P1;PMS_P2;Temp;Humidity;BMP_temperature;BMP_pressure;BME280_temperature;BME280_humidity;BME280_pressure;Samples;Min_cycle;Max_cycle;Signal;HPM_P1;HPM_P2
2023/04/08 00:01:06;;;;;;;11.52;7.32;;;7.40;99.90;;;;;;5041987;28;20826;-69
2023/04/08 00:03:33;;;;;;;9.38;6.38;;;7.40;99.90;;;;;;5046055;28;20245;-68
2023/04/08 00:06:02;;;;;;;10.10;6.75;;;7.40;99.90;;;;;;5046206;28;20223;-68
2023/04/08 00:08:30;;;;;;;8.65;6.90;;;7.40;99.90;;;;;;5050301;28;20200;-68
2023/04/08 00:10:57;;;;;;;10.82;7.18;;;7.40;99.90;;;;;;5034609;28;20217;-68
2023/04/08 00:13:23;;;;;;;9.70;6.90;;;7.40;99.90;;;;;;5038362;28;20208;-68
2023/04/08 00:15:50;;;;;;;10.02;6.90;;;7.50;99.90;;;;;;5038226;28;20226;-67
2023/04/08 00:18:17;;;;;;;11.77;7.55;;;7.50;99.90;;;;;;5040236;28;20209;-68
2023/04/08 00:20:44;;;;;;;11.95;6.95;;;7.50;99.90;;;;;;5049676;28;20193;-68
2023/04/08 00:23:11;;;;;;;11.82;8.05;;;7.40;99.90;;;;;;5041480;28;20293;-67
2023/04/08 00:25:39;;;;;;;8.93;6.03;;;7.40;99.90;;;;;;5041668;28;20201;-67
2023/04/08 00:28:06;;;;;;;8.68;6.35;;;7.40;99.90;;;;;;5049653;28;20201;-67
2023/04/08 00:30:33;;;;;;;8.65;5.93;;;7.40;99.90;;;;;;5033576;28;20209;-69
2023/04/08 00:33:00;;;;;;;10.98;7.07;;;7.40;99.90;;;;;;5041866;28;20197;-66
2023/04/08 00:35:27;;;;;;;8.07;6.10;;;7.40;99.90;;;;;;5038300;28;20198;-68
2023/04/08 00:37:54;;;;;;;9.38;6.07;;;7.30;99.90;;;;;;5044890;28;20211;-68
2023/04/08 00:40:20;;;;;;;7.50;6.20;;;7.40;99.90;;;;;;5033094;28;20201;-68
2023/04/08 00:42:48;;;;;;;8.02;6.07;;;7.40;99.90;;;;;;5035792;28;20554;-68
2023/04/08 00:45:15;;;;;;;10.77;6.57;;;7.30;99.90;;;;;;5039182;28;20210;-67
2023/04/08 00:47:42;;;;;;;9.32;6.28;;;7.30;99.90;;;;;;5041446;28;20278;-68
2023/04/08 00:50:10;;;;;;;9.57;6.53;;;7.30;99.90;;;;;;5048837;28;20288;-68
2023/04/08 00:52:37;;;;;;;9.85;6.47;;;7.30;99.90;;;;;;5029633;28;20229;-68
2023/04/08 00:55:04;;;;;;;9.13;6.55;;;7.30;99.90;;;;;;5037868;28;20193;-68
2023/04/08 00:57:31;;;;;;;9.43;6.95;;;7.20;99.90;;;;;;5025545;28;20225;-68
2023/04/08 00:59:59;;;;;;;7.57;5.90;;;7.20;99.90;;;;;;5046312;28;20205;-68
2023/04/08 01:02:31;;;;;;;11.65;7.15;;;7.20;99.90;;;;;;5052384;28;20260;-68
2023/04/08 01:05:02;;;;;;;8.38;5.70;;;7.20;99.90;;;;;;5046312;28;20221;-68
2023/04/08 01:07:32;;;;;;;9.38;6.78;;;7.20;99.90;;;;;;5036034;28;20704;-68
2023/04/08 01:10:03;;;;;;;9.30;6.97;;;7.20;99.90;;;;;;5045704;28;20209;-68
2023/04/08 01:12:31;;;;;;;8.70;6.55;;;7.20;99.90;;;;;;5044223;28;20208;-68
2023/04/08 01:15:04;;;;;;;8.73;6.18;;;7.20;99.90;;;;;;5046174;28;20194;-68
2023/04/08 01:17:32;;;;;;;8.68;6.50;;;7.20;99.90;;;;;;5040917;28;20213;-68
2023/04/08 01:20:02;;;;;;;10.65;6.35;;;7.10;99.90;;;;;;5032744;28;20689;-68
2023/04/08 01:22:37;;;;;;;9.40;6.30;;;7.10;99.90;;;;;;5040840;28;20228;-68
2023/04/08 01:25:08;;;;;;;9.73;6.13;;;7.10;99.90;;;;;;5040707;28;20221;-68
2023/04/08 01:27:37;;;;;;;8.23;5.90;;;7.10;99.90;;;;;;5033648;28;20222;-68
2023/04/08 01:30:06;;;;;;;8.77;6.22;;;7.10;99.90;;;;;;5041043;28;20202;-68
2023/04/08 01:32:34;;;;;;;8.68;5.72;;;7.10;99.90;;;;;;5040776;28;20201;-68
2023/04/08 01:35:01;;;;;;;8.40;6.10;;;7.10;99.90;;;;;;5039943;28;20308;-69
2023/04/08 01:37:30;;;;;;;6.80;6.10;;;7.20;99.90;;;;;;5041198;28;20741;-69
2023/04/08 01:39:58;;;;;;;7.53;6.18;;;7.20;99.90;;;;;;5047296;28;20221;-68
2023/04/08 01:42:26;;;;;;;9.52;5.55;;;7.20;99.90;;;;;;5041743;28;20696;-68
2023/04/08 01:44:57;;;;;;;7.88;5.55;;;7.20;99.90;;;;;;5046778;28;20696;-68
2023/04/08 01:47:25;;;;;;;7.20;5.55;;;7.20;99.90;;;;;;5049926;28;20230;-68
2023/04/08 01:49:52;;;;;;;6.28;5.03;;;7.20;99.90;;;;;;5032271;28;20194;-68
2023/04/08 01:52:22;;;;;;;7.50;6.00;;;7.20;99.90;;;;;;5041906;28;20217;-68
2023/04/08 01:54:49;;;;;;;8.85;6.20;;;7.10;99.90;;;;;;5052331;28;20198;-68
2023/04/08 01:57:22;;;;;;;9.88;5.88;;;7.10;99.90;;;;;;5043601;28;20217;-67
2023/04/08 01:59:51;;;;;;;8.07;5.18;;;7.10;99.90;;;;;;5046670;28;20198;-68
2023/04/08 02:02:21;;;;;;;6.85;5.30;;;7.20;99.90;;;;;;5041376;28;20193;-68
2023/04/08 02:04:47;;;;;;;10.23;6.35;;;7.10;99.90;;;;;;5043806;28;20703;-68
2023/04/08 02:07:15;;;;;;;7.65;5.25;;;7.10;99.90;;;;;;5051145;28;20296;-68
2023/04/08 02:09:42;;;;;;;10.20;6.43;;;7.10;99.90;;;;;;5043585;28;20684;-69
2023/04/08 02:12:08;;;;;;;10.55;6.22;;;7.10;99.90;;;;;;5043982;28;20226;-68
2023/04/08 02:14:35;;;;;;;7.95;6.20;;;7.10;99.90;;;;;;5035144;28;20208;-68
2023/04/08 02:17:08;;;;;;;10.07;5.68;;;7.10;99.90;;;;;;5051680;28;20213;-68
2023/04/08 02:19:44;;;;;;;8.18;6.15;;;7.00;99.90;;;;;;5031290;28;20198;-68
2023/04/08 02:22:17;;;;;;;8.52;5.78;;;7.00;99.90;;;;;;5040195;28;20201;-68
2023/04/08 02:24:45;;;;;;;9.05;5.95;;;7.00;99.90;;;;;;5039084;28;20240;-68
2023/04/08 02:27:12;;;;;;;8.50;6.07;;;7.00;99.90;;;;;;5048162;28;20727;-67
2023/04/08 02:29:40;;;;;;;9.07;5.93;;;6.90;99.90;;;;;;5047561;28;20204;-68
2023/04/08 02:32:10;;;;;;;7.60;6.20;;;6.90;99.90;;;;;;5031577;28;20720;-68
2023/04/08 02:34:40;;;;;;;9.07;5.65;;;6.90;99.90;;;;;;5039745;28;20201;-69
2023/04/08 02:37:08;;;;;;;7.82;5.43;;;6.90;99.90;;;;;;5039694;28;20257;-68
2023/04/08 02:39:35;;;;;;;9.00;6.32;;;6.90;99.90;;;;;;5039330;28;20202;-68
2023/04/08 02:42:01;;;;;;;9.20;6.03;;;6.90;99.90;;;;;;5046634;28;20209;-68
2023/04/08 02:44:28;;;;;;;7.85;6.05;;;6.90;99.90;;;;;;5110021;22;20246;-65
2023/04/08 02:46:55;;;;;;;8.75;6.72;;;6.90;99.90;;;;;;5030667;28;20224;-65
2023/04/08 02:49:21;;;;;;;9.27;6.32;;;6.90;99.90;;;;;;5030586;28;20198;-65
2023/04/08 02:51:49;;;;;;;8.45;6.20;;;6.90;99.90;;;;;;5030884;28;20206;-65
2023/04/08 02:54:16;;;;;;;10.60;7.25;;;6.90;99.90;;;;;;5030574;28;20202;-65
2023/04/08 02:56:43;;;;;;;10.48;6.45;;;6.90;99.90;;;;;;5030895;28;20630;-65
2023/04/08 02:59:09;;;;;;;9.57;6.40;;;6.90;99.90;;;;;;5030451;28;20609;-65
2023/04/08 03:01:36;;;;;;;8.48;6.65;;;6.90;99.90;;;;;;5030557;28;20202;-65
2023/04/08 03:04:03;;;;;;;8.00;6.15;;;6.90;99.90;;;;;;5030307;28;20194;-65
2023/04/08 03:06:30;;;;;;;9.93;6.90;;;6.90;99.90;;;;;;5030361;28;20221;-65
2023/04/08 03:08:58;;;;;;;9.50;7.03;;;6.90;99.90;;;;;;5030241;28;20193;-65
2023/04/08 03:11:25;;;;;;;9.13;6.30;;;6.90;99.90;;;;;;5030522;28;20260;-65
2023/04/08 03:13:51;;;;;;;9.45;6.07;;;6.90;99.90;;;;;;5030668;28;20657;-65
2023/04/08 03:16:18;;;;;;;10.13;6.20;;;6.90;99.90;;;;;;5030011;28;20573;-65
2023/04/08 03:18:45;;;;;;;13.98;7.13;;;6.90;99.90;;;;;;5030284;28;20209;-65
2023/04/08 03:21:11;;;;;;;12.45;7.13;;;6.90;99.90;;;;;;5037880;28;20196;-65
2023/04/08 03:23:38;;;;;;;9.65;6.25;;;6.90;99.90;;;;;;5050083;28;20664;-65
2023/04/08 03:26:06;;;;;;;11.50;6.45;;;6.80;99.90;;;;;;5034765;28;20248;-65
2023/04/08 03:28:33;;;;;;;9.90;6.43;;;6.80;99.90;;;;;;5029910;28;20248;-65
2023/04/08 03:31:00;;;;;;;11.60;6.95;;;6.80;99.90;;;;;;5030070;28;20204;-65
2023/04/08 03:33:27;;;;;;;10.43;6.85;;;6.80;99.90;;;;;;5030081;28;20681;-65
2023/04/08 03:35:54;;;;;;;10.45;7.03;;;6.90;99.90;;;;;;5029901;28;20584;-65
2023/04/08 03:38:21;;;;;;;9.98;7.22;;;6.80;99.90;;;;;;5030318;28;20194;-65
2023/04/08 03:40:47;;;;;;;12.35;7.05;;;6.80;99.90;;;;;;5029788;28;20198;-65
2023/04/08 03:43:18;;;;;;;9.13;6.32;;;6.80;99.90;;;;;;5029869;28;20198;-65
2023/04/08 03:45:45;;;;;;;10.98;7.00;;;6.80;99.90;;;;;;5049822;28;20225;-65
2023/04/08 03:48:11;;;;;;;13.23;7.60;;;6.80;99.90;;;;;;5049780;28;20212;-65
2023/04/08 03:50:38;;;;;;;10.40;6.55;;;6.80;99.90;;;;;;5049451;28;20203;-65
2023/04/08 03:53:05;;;;;;;8.73;6.22;;;6.80;99.90;;;;;;5049752;28;20197;-65
2023/04/08 03:55:31;;;;;;;11.35;7.20;;;6.70;99.90;;;;;;5049934;28;20193;-65
2023/04/08 03:57:58;;;;;;;10.35;7.28;;;6.80;99.90;;;;;;5050491;28;20208;-65
2023/04/08 04:00:26;;;;;;;11.25;8.00;;;6.70;99.90;;;;;;5034075;28;20673;-65
2023/04/08 04:02:54;;;;;;;11.48;6.70;;;6.70;99.90;;;;;;5029902;28;20198;-65
2023/04/08 04:05:21;;;;;;;11.32;6.55;;;6.70;99.90;;;;;;5029871;28;20210;-65
2023/04/08 04:07:48;;;;;;;9.70;7.43;;;6.70;99.90;;;;;;5030034;28;20194;-65
2023/04/08 04:10:14;;;;;;;13.27;8.90;;;6.70;99.90;;;;;;5029652;28;20688;-65
2023/04/08 04:12:41;;;;;;;13.82;7.60;;;6.70;99.90;;;;;;5029947;28;20194;-65
2023/04/08 04:15:08;;;;;;;12.77;7.80;;;6.70;99.90;;;;;;5029875;28;20205;-65
2023/04/08 04:17:37;;;;;;;8.30;6.30;;;6.70;99.90;;;;;;5029799;28;20229;-65
2023/04/08 04:20:05;;;;;;;9.88;6.82;;;6.70;99.90;;;;;;5029552;28;20202;-65
2023/04/08 04:22:31;;;;;;;9.93;6.85;;;6.70;99.90;;;;;;5029970;28;20224;-65
2023/04/08 04:24:58;;;;;;;7.85;5.90;;;6.70;99.90;;;;;;5035275;28;20732;-65
2023/04/08 04:27:25;;;;;;;9.63;5.90;;;6.70;99.90;;;;;;5049484;28;20707;-65
2023/04/08 04:29:52;;;;;;;9.63;6.30;;;6.70;99.90;;;;;;5049718;28;20208;-65
2023/04/08 04:32:19;;;;;;;10.07;6.25;;;6.70;99.90;;;;;;5050152;28;21057;-65
2023/04/08 04:34:47;;;;;;;10.80;6.50;;;6.60;99.90;;;;;;5053937;28;20224;-65
2023/04/08 04:37:13;;;;;;;8.85;5.63;;;6.60;99.90;;;;;;5053298;28;20633;-65
2023/04/08 04:39:40;;;;;;;9.00;6.10;;;6.60;99.90;;;;;;5053261;28;20625;-65
2023/04/08 04:42:07;;;;;;;11.77;6.47;;;6.50;99.90;;;;;;5053431;28;20197;-65
2023/04/08 04:44:33;;;;;;;9.45;6.05;;;6.60;99.90;;;;;;5053278;28;20212;-65
2023/04/08 04:47:00;;;;;;;10.13;7.05;;;6.60;99.90;;;;;;5053156;28;20239;-65
2023/04/08 04:49:27;;;;;;;11.35;7.13;;;6.60;99.90;;;;;;5053108;28;20205;-65
2023/04/08 04:51:55;;;;;;;10.05;6.00;;;6.60;99.90;;;;;;5048693;28;20205;-65
2023/04/08 04:54:21;;;;;;;11.07;6.00;;;6.60;99.90;;;;;;5033220;28;20689;-64
2023/04/08 04:56:48;;;;;;;12.40;7.50;;;6.60;99.90;;;;;;5033203;28;20214;-64
2023/04/08 04:59:15;;;;;;;9.02;6.88;;;6.70;99.90;;;;;;5032959;28;20209;-65
2023/04/08 05:01:41;;;;;;;11.20;7.10;;;6.70;99.90;;;;;;5033050;28;20202;-65
2023/04/08 05:04:08;;;;;;;9.05;6.10;;;6.60;99.90;;;;;;5033089;28;20210;-65
2023/04/08 05:06:35;;;;;;;9.43;6.07;;;6.70;99.90;;;;;;5032800;28;20228;-65
2023/04/08 05:09:03;;;;;;;9.90;7.30;;;6.60;99.90;;;;;;5032800;28;20248;-65
2023/04/08 05:11:29;;;;;;;10.05;7.40;;;6.60;99.90;;;;;;5033090;28;20213;-65
2023/04/08 05:13:56;;;;;;;10.18;7.57;;;6.60;99.90;;;;;;5033031;28;20198;-65
2023/04/08 05:16:23;;;;;;;12.95;7.45;;;6.70;99.90;;;;;;5032576;28;20225;-65
2023/04/08 05:18:50;;;;;;;13.85;7.38;;;6.70;99.90;;;;;;5032661;28;20205;-65
2023/04/08 05:21:16;;;;;;;10.88;7.10;;;6.60;99.90;;;;;;5032621;28;20194;-65
2023/04/08 05:23:43;;;;;;;8.13;6.38;;;6.70;99.90;;;;;;5032675;28;20874;-65
2023/04/08 05:26:11;;;;;;;11.45;6.63;;;6.60;99.90;;;;;;5032666;28;20629;-65
2023/04/08 05:28:38;;;;;;;14.18;8.65;;;6.60;99.90;;;;;;5032175;28;20206;-64
2023/04/08 05:31:04;;;;;;;9.60;6.85;;;6.60;99.90;;;;;;5032848;28;20209;-65
2023/04/08 05:33:31;;;;;;;10.30;7.75;;;6.60;99.90;;;;;;5032612;28;20273;-65
2023/04/08 05:35:58;;;;;;;9.50;6.57;;;6.60;99.90;;;;;;5032618;28;20380;-65
2023/04/08 05:38:25;;;;;;;11.23;7.20;;;6.70;99.90;;;;;;5032485;28;20201;-64
2023/04/08 05:40:51;;;;;;;9.98;6.80;;;6.70;99.90;;;;;;5032041;28;20209;-64
2023/04/08 05:43:19;;;;;;;11.70;7.20;;;6.70;99.90;;;;;;5040045;28;20208;-65
2023/04/08 05:45:46;;;;;;;11.82;7.25;;;6.70;99.90;;;;;;5051707;28;20307;-65
2023/04/08 05:48:13;;;;;;;12.02;7.15;;;6.70;99.90;;;;;;5052396;28;20197;-64
2023/04/08 05:50:39;;;;;;;10.20;6.90;;;6.80;99.90;;;;;;5051654;28;20201;-64
2023/04/08 05:53:06;;;;;;;10.00;7.35;;;6.80;99.90;;;;;;5052208;28;20661;-65
2023/04/08 05:55:33;;;;;;;11.93;8.80;;;6.80;99.90;;;;;;5049491;28;20931;-65
2023/04/08 05:58:00;;;;;;;8.38;6.60;;;6.90;99.90;;;;;;5032144;28;20201;-65
2023/04/08 06:00:28;;;;;;;7.40;5.85;;;6.90;99.90;;;;;;5031626;28;20561;-65
2023/04/08 06:02:54;;;;;;;8.55;6.20;;;6.90;99.90;;;;;;5031935;28;20202;-65
2023/04/08 06:05:21;;;;;;;7.68;6.15;;;6.90;99.90;;;;;;5031914;28;20599;-65
2023/04/08 06:07:48;;;;;;;10.57;6.78;;;6.90;99.90;;;;;;5031232;28;20225;-65
2023/04/08 06:10:14;;;;;;;8.45;6.22;;;6.90;99.90;;;;;;5031449;28;20227;-64
2023/04/08 06:12:41;;;;;;;7.88;5.43;;;6.90;99.90;;;;;;5031429;28;20694;-65
2023/04/08 06:15:09;;;;;;;9.82;6.78;;;7.00;99.90;;;;;;5031825;28;20214;-66
2023/04/08 06:17:37;;;;;;;10.68;6.28;;;7.00;99.90;;;;;;5030910;28;20233;-66
2023/04/08 06:20:05;;;;;;;12.25;7.10;;;7.00;99.90;;;;;;5031326;28;20202;-65
2023/04/08 06:22:32;;;;;;;8.90;7.30;;;7.00;99.90;;;;;;5040768;28;20208;-66
2023/04/08 06:24:59;;;;;;;9.13;7.28;;;7.00;99.90;;;;;;5051640;28;20201;-65
2023/04/08 06:27:26;;;;;;;8.52;6.50;;;7.10;99.90;;;;;;5034520;28;20226;-66
2023/04/08 06:29:54;;;;;;;8.25;5.82;;;7.10;99.90;;;;;;5031070;28;20208;-66
2023/04/08 06:32:20;;;;;;;9.20;6.47;;;7.10;99.90;;;;;;5031567;28;20634;-66
2023/04/08 06:34:48;;;;;;;7.30;5.95;;;7.10;99.90;;;;;;5050628;28;20205;-66
2023/04/08 06:37:16;;;;;;;8.00;6.68;;;7.00;99.90;;;;;;5051124;28;20224;-65
2023/04/08 06:39:43;;;;;;;8.52;6.80;;;7.10;99.90;;;;;;5050782;28;20205;-65
2023/04/08 06:42:10;;;;;;;8.43;5.85;;;7.10;99.90;;;;;;5045550;28;20202;-66
2023/04/08 06:44:36;;;;;;;7.82;5.90;;;7.30;99.90;;;;;;5032154;28;20252;-65
2023/04/08 06:47:03;;;;;;;8.20;6.72;;;7.20;99.90;;;;;;5031580;28;20221;-66
2023/04/08 06:49:30;;;;;;;7.35;5.45;;;7.30;99.90;;;;;;5030656;28;20603;-66
2023/04/08 06:51:58;;;;;;;9.35;6.57;;;7.30;99.90;;;;;;5030902;28;20221;-66
2023/04/08 06:54:25;;;;;;;5.88;5.15;;;7.40;99.90;;;;;;5031185;28;20202;-65
2023/04/08 06:56:51;;;;;;;10.70;6.70;;;7.50;99.90;;;;;;5029914;28;20216;-66
2023/04/08 06:59:18;;;;;;;7.38;5.57;;;7.60;99.90;;;;;;5030703;28;20205;-66
2023/04/08 07:01:45;;;;;;;7.63;5.28;;;7.70;99.90;;;;;;5030624;28;20209;-66
2023/04/08 07:04:12;;;;;;;7.60;6.45;;;7.80;99.90;;;;;;5037295;28;20197;-66
2023/04/08 07:06:38;;;;;;;5.93;5.30;;;8.00;99.90;;;;;;5049631;28;20235;-66
2023/04/08 07:09:06;;;;;;;5.50;4.80;;;8.10;99.90;;;;;;5050445;28;20197;-66
2023/04/08 07:11:33;;;;;;;7.87;5.60;;;8.00;99.90;;;;;;5049898;28;20464;-66
2023/04/08 07:14:00;;;;;;;5.43;4.80;;;7.90;99.90;;;;;;5050643;28;20495;-64
2023/04/08 07:16:26;;;;;;;9.75;5.70;;;7.90;99.90;;;;;;5050524;28;20584;-66
2023/04/08 07:18:53;;;;;;;7.50;5.75;;;7.90;99.90;;;;;;5030318;28;20212;-66
2023/04/08 07:21:20;;;;;;;6.05;5.22;;;7.80;99.90;;;;;;5030563;28;20206;-66
2023/04/08 07:23:47;;;;;;;6.45;4.85;;;7.80;99.90;;;;;;5030095;28;20198;-66
2023/04/08 07:26:15;;;;;;;6.32;4.80;;;7.70;99.90;;;;;;5030876;28;20244;-66
2023/04/08 07:28:42;;;;;;;5.55;4.75;;;7.70;99.90;;;;;;5029690;28;20202;-66
2023/04/08 07:31:13;;;;;;;6.82;5.63;;;7.70;99.90;;;;;;5032921;28;20205;-66
2023/04/08 07:33:40;;;;;;;7.45;5.80;;;7.80;99.90;;;;;;5049764;28;20254;-66
2023/04/08 07:36:08;;;;;;;6.80;5.18;;;7.80;99.90;;;;;;5049867;28;20213;-66
2023/04/08 07:38:35;;;;;;;7.80;6.03;;;7.80;99.90;;;;;;5047334;28;20247;-66
2023/04/08 07:41:02;;;;;;;7.60;5.93;;;7.70;99.90;;;;;;5029936;28;20212;-65
2023/04/08 07:43:31;;;;;;;8.40;5.97;;;7.70;99.90;;;;;;5030228;28;20209;-67
2023/04/08 07:46:02;;;;;;;6.43;5.38;;;7.80;99.90;;;;;;5029768;28;20223;-66
2023/04/08 07:48:29;;;;;;;7.70;5.85;;;7.80;99.90;;;;;;5030214;28;20205;-66
2023/04/08 07:50:56;;;;;;;5.93;5.32;;;7.90;99.90;;;;;;5021754;28;20205;-65
2023/04/08 07:53:23;;;;;;;10.65;6.63;;;8.00;99.90;;;;;;5030022;28;20703;-66
2023/04/08 07:55:50;;;;;;;8.70;6.30;;;8.10;99.90;;;;;;5029384;28;21193;-66
2023/04/08 07:58:17;;;;;;;7.53;5.80;;;8.10;99.90;;;;;;5030139;28;20668;-66
2023/04/08 08:00:45;;;;;;;9.60;6.18;;;8.20;99.90;;;;;;5029220;28;20209;-66
2023/04/08 08:03:12;;;;;;;7.38;5.95;;;8.40;99.90;;;;;;5030072;28;20201;-66
2023/04/08 08:05:38;;;;;;;7.28;5.95;;;8.60;99.90;;;;;;5029481;28;20571;-66
2023/04/08 08:08:06;;;;;;;8.02;5.93;;;8.90;99.90;;;;;;5031685;28;20604;-66
2023/04/08 08:10:33;;;;;;;7.45;5.53;;;9.00;99.90;;;;;;5033327;28;20209;-66
2023/04/08 08:13:00;;;;;;;10.77;6.82;;;9.10;99.90;;;;;;5037803;28;20331;-66
2023/04/08 08:15:26;;;;;;;7.05;5.30;;;9.20;99.90;;;;;;5053720;28;20216;-66
2023/04/08 08:17:54;;;;;;;6.85;6.07;;;9.20;99.90;;;;;;5051194;28;20220;-66
2023/04/08 08:20:21;;;;;;;7.70;6.60;;;9.20;99.90;;;;;;5033722;28;20613;-66
2023/04/08 08:22:48;;;;;;;7.38;5.60;;;9.30;99.90;;;;;;5033567;28;20213;-67
2023/04/08 08:25:15;;;;;;;9.02;6.57;;;9.40;99.90;;;;;;5034011;28;20198;-67
2023/04/08 08:27:42;;;;;;;6.97;5.53;;;9.50;99.90;;;;;;5033224;28;20222;-66
2023/04/08 08:30:09;;;;;;;7.97;5.45;;;9.60;99.90;;;;;;5033328;28;20210;-66
2023/04/08 08:32:36;;;;;;;8.45;6.35;;;9.70;99.90;;;;;;5033727;28;20202;-66
2023/04/08 08:35:04;;;;;;;9.27;6.82;;;9.70;99.90;;;;;;5053543;28;20204;-66
2023/04/08 08:37:31;;;;;;;5.95;5.00;;;9.80;99.90;;;;;;5053097;28;20217;-66
2023/04/08 08:39:58;;;;;;;6.47;5.88;;;9.80;99.90;;;;;;5052878;28;20898;-66
2023/04/08 08:42:26;;;;;;;8.43;6.28;;;9.80;99.90;;;;;;5053158;28;20592;-67
2023/04/08 08:44:52;;;;;;;8.23;6.35;;;9.80;99.90;;;;;;5130347;22;20227;-67
2023/04/08 08:47:19;;;;;;;8.32;6.70;;;9.80;99.90;;;;;;5012526;28;20226;-68
2023/04/08 08:49:48;;;;;;;8.20;6.18;;;9.80;99.90;;;;;;5000751;28;20273;-69
2023/04/08 08:52:17;;;;;;;6.53;5.88;;;9.80;99.90;;;;;;4988940;28;20212;-68
2023/04/08 08:54:44;;;;;;;10.57;8.32;;;9.80;99.90;;;;;;4988736;28;20234;-68
2023/04/08 08:57:18;;;;;;;7.57;6.75;;;9.90;99.90;;;;;;4989367;28;20588;-68
2023/04/08 08:59:46;;;;;;;9.25;7.30;;;10.10;99.90;;;;;;4993429;28;20330;-68
2023/04/08 09:02:26;;;;;;;8.82;5.82;;;10.30;99.90;;;;;;4998417;28;20261;-68
2023/04/08 09:04:58;;;;;;;10.07;6.68;;;10.50;99.90;;;;;;4995207;28;20296;-68
2023/04/08 09:07:27;;;;;;;7.38;6.20;;;10.80;99.90;;;;;;4993179;28;20729;-68
2023/04/08 09:09:55;;;;;;;8.60;6.75;;;11.40;99.90;;;;;;4994466;28;20207;-68
2023/04/08 09:12:23;;;;;;;8.10;6.35;;;11.90;99.90;;;;;;4990351;28;20566;-68
2023/04/08 09:14:50;;;;;;;7.70;6.90;;;12.40;99.90;;;;;;4994547;28;20683;-68
2023/04/08 09:17:30;;;;;;;8.88;7.22;;;12.60;99.90;;;;;;4993867;28;20250;-68
2023/04/08 09:20:10;;;;;;;8.00;6.65;;;12.80;99.90;;;;;;4995216;28;20201;-68
2023/04/08 09:22:55;;;;;;;7.83;6.40;;;13.20;99.90;;;;;;4999500;28;20241;-68
2023/04/08 09:25:26;;;;;;;9.33;6.23;;;13.70;99.90;;;;;;5013475;28;20831;-68
2023/04/08 09:27:53;;;;;;;7.60;6.10;;;14.10;99.90;;;;;;5013453;28;20481;-68
2023/04/08 09:30:22;;;;;;;8.13;6.80;;;14.20;99.90;;;;;;5013654;28;20457;-68
2023/04/08 09:32:50;;;;;;;8.03;7.23;;;14.30;99.90;;;;;;5010165;28;20865;-65
2023/04/08 09:35:18;;;;;;;9.47;6.77;;;14.40;99.90;;;;;;4987422;28;20528;-68
2023/04/08 09:37:45;;;;;;;7.40;6.67;;;14.30;99.90;;;;;;4989853;28;20489;-67
2023/04/08 09:40:15;;;;;;;7.60;6.80;;;14.20;99.90;;;;;;4988471;28;20513;-68
2023/04/08 09:42:47;;;;;;;8.23;6.73;;;14.00;99.90;;;;;;4992462;28;20474;-67
2023/04/08 09:45:15;;;;;;;8.37;6.70;;;13.90;99.90;;;;;;5003811;28;20469;-67
2023/04/08 09:47:52;;;;;;;8.53;6.53;;;13.60;99.90;;;;;;5012427;28;20833;-67
2023/04/08 09:50:23;;;;;;;9.53;7.97;;;13.60;99.90;;;;;;5012889;28;20469;-68
2023/04/08 09:52:53;;;;;;;8.73;7.90;;;13.70;99.90;;;;;;5012214;28;20923;-66
2023/04/08 09:55:25;;;;;;;11.50;8.80;;;13.90;99.90;;;;;;5012898;28;20461;-66
2023/04/08 09:57:58;;;;;;;9.80;7.73;;;14.10;99.90;;;;;;5012437;28;20464;-67
2023/04/08 10:00:30;;;;;;;7.40;6.70;;;14.30;99.90;;;;;;5012833;28;20476;-68
2023/04/08 10:03:06;;;;;;;6.80;6.20;;;14.90;99.90;;;;;;5013050;28;20461;-68
2023/04/08 10:05:36;;;;;;;6.70;5.70;;;15.50;99.60;;;;;;5013094;28;20468;-68
2023/04/08 10:08:05;;;;;;;7.40;6.37;;;16.00;99.40;;;;;;5013185;28;20492;-68
2023/04/08 10:10:34;;;;;;;9.13;7.00;;;16.40;99.90;;;;;;5012828;28;20473;-67
2023/04/08 10:13:01;;;;;;;7.00;6.30;;;16.60;99.80;;;;;;5013084;28;20468;-68
2023/04/08 10:15:29;;;;;;;7.87;6.67;;;16.70;97.60;;;;;;5013040;28;20469;-68
2023/04/08 10:18:18;;;;;;;6.70;6.00;;;16.40;97.40;;;;;;5012513;28;20963;-68
2023/04/08 10:20:45;;;;;;;8.70;6.73;;;16.40;97.70;;;;;;5012267;28;20988;-68
2023/04/08 10:23:13;;;;;;;8.13;7.00;;;16.20;97.30;;;;;;5013181;28;20493;-68
2023/04/08 10:25:43;;;;;;;7.53;6.67;;;16.00;97.10;;;;;;5013195;28;20844;-68
2023/04/08 10:28:24;;;;;;;8.00;6.17;;;15.80;98.10;;;;;;5012487;28;20580;-68
2023/04/08 10:30:51;;;;;;;7.47;6.77;;;15.90;97.70;;;;;;5011399;28;20465;-67
2023/04/08 10:33:31;;;;;;;7.60;6.60;;;15.90;97.10;;;;;;5012574;28;20457;-67
2023/04/08 10:36:03;;;;;;;7.20;6.27;;;15.90;98.20;;;;;;5003695;28;20916;-67
2023/04/08 10:38:30;;;;;;;7.30;6.60;;;15.70;97.20;;;;;;5011080;28;20866;-67
2023/04/08 10:40:58;;;;;;;7.47;5.97;;;15.50;97.20;;;;;;5010428;28;20949;-68
2023/04/08 10:43:25;;;;;;;8.33;6.77;;;14.90;96.90;;;;;;5012116;28;20480;-68
2023/04/08 10:45:53;;;;;;;8.30;7.00;;;14.20;97.10;;;;;;5011877;28;20516;-67
2023/04/08 10:48:23;;;;;;;8.83;6.60;;;13.60;97.40;;;;;;5011648;28;20516;-67
2023/04/08 10:50:54;;;;;;;7.80;6.43;;;13.30;98.40;;;;;;5011364;28;20467;-68
2023/04/08 10:53:26;;;;;;;7.30;6.60;;;13.00;98.80;;;;;;5005533;28;20944;-67
2023/04/08 10:55:53;;;;;;;6.83;6.20;;;12.70;99.50;;;;;;5010011;28;20485;-68
2023/04/08 10:58:21;;;;;;;7.43;6.50;;;12.60;99.70;;;;;;5011266;28;20508;-68
2023/04/08 11:00:48;;;;;;;7.63;6.40;;;12.40;99.90;;;;;;5011299;28;20472;-68
2023/04/08 11:03:15;;;;;;;7.93;6.93;;;12.40;99.90;;;;;;5011374;28;20462;-68
2023/04/08 11:05:42;;;;;;;12.70;10.90;;;12.30;99.90;;;;;;5011449;28;20472;-68
2023/04/08 11:08:09;;;;;;;9.97;7.83;;;12.00;99.90;;;;;;5011339;28;20573;-68
2023/04/08 11:10:38;;;;;;;8.07;6.78;;;11.90;99.90;;;;;;5011281;28;20465;-68
2023/04/08 11:13:08;;;;;;;7.37;6.63;;;11.70;99.90;;;;;;5006068;28;20669;-67
2023/04/08 11:15:38;;;;;;;7.80;6.32;;;11.50;99.90;;;;;;5011106;28;20839;-68
2023/04/08 11:18:05;;;;;;;7.72;7.03;;;11.40;99.90;;;;;;5010873;28;20260;-68
2023/04/08 11:20:35;;;;;;;8.23;7.40;;;11.30;99.90;;;;;;5007579;28;20665;-68
2023/04/08 11:23:01;;;;;;;8.13;7.28;;;11.30;99.90;;;;;;4973156;28;20208;-68
2023/04/08 11:25:29;;;;;;;9.35;7.13;;;11.30;99.90;;;;;;4995894;28;20202;-67
2023/04/08 11:27:56;;;;;;;10.32;7.78;;;11.20;99.90;;;;;;5010934;28;20214;-68
2023/04/08 11:30:23;;;;;;;8.40;6.65;;;11.20;99.90;;;;;;5010470;28;20202;-68
2023/04/08 11:32:52;;;;;;;7.07;6.32;;;11.20;99.90;;;;;;5010720;28;20238;-68
2023/04/08 11:35:18;;;;;;;7.95;7.15;;;11.30;99.90;;;;;;5010894;28;20528;-68
2023/04/08 11:37:46;;;;;;;11.93;7.70;;;11.30;99.90;;;;;;5010557;28;20592;-68
2023/04/08 11:40:13;;;;;;;8.48;6.32;;;11.30;99.90;;;;;;5010383;28;20221;-68
2023/04/08 11:42:40;;;;;;;8.27;7.40;;;11.40;99.90;;;;;;5008248;28;20205;-68
2023/04/08 11:45:18;;;;;;;9.40;8.23;;;11.40;99.90;;;;;;5010572;28;20252;-68
2023/04/08 11:47:46;;;;;;;9.43;8.15;;;11.30;99.90;;;;;;5010787;28;20314;-68
2023/04/08 11:50:22;;;;;;;9.48;7.70;;;11.30;99.90;;;;;;5010934;28;20205;-68
2023/04/08 11:52:50;;;;;;;8.98;6.65;;;11.40;99.90;;;;;;5010899;28;20210;-68
2023/04/08 11:55:23;;;;;;;9.38;6.75;;;11.40;99.90;;;;;;5011265;28;20282;-69
2023/04/08 11:57:51;;;;;;;8.23;6.28;;;11.40;99.90;;;;;;5010567;28;20830;-68
2023/04/08 12:00:18;;;;;;;8.02;6.68;;;11.40;99.90;;;;;;5002728;28;20233;-68
2023/04/08 12:02:45;;;;;;;8.38;7.57;;;11.30;99.90;;;;;;5010320;28;20740;-68
2023/04/08 12:05:13;;;;;;;8.52;7.40;;;11.30;99.90;;;;;;5006992;28;20297;-68
2023/04/08 12:07:40;;;;;;;9.32;7.00;;;11.30;99.90;;;;;;5009911;28;20254;-68
2023/04/08 12:10:08;;;;;;;9.40;7.82;;;11.30;99.90;;;;;;5009948;28;20289;-67
2023/04/08 12:12:35;;;;;;;8.52;6.85;;;11.30;99.90;;;;;;5010486;28;20586;-67
2023/04/08 12:15:02;;;;;;;8.80;6.78;;;11.30;99.90;;;;;;5010410;28;20202;-67
2023/04/08 12:17:29;;;;;;;7.95;6.70;;;11.40;99.90;;;;;;5010067;28;20218;-67
2023/04/08 12:19:56;;;;;;;8.18;6.85;;;11.40;99.90;;;;;;5009607;28;20646;-68
2023/04/08 12:22:24;;;;;;;7.38;6.68;;;11.50;99.90;;;;;;5010300;28;20696;-68
2023/04/08 12:24:51;;;;;;;11.23;7.55;;;11.60;99.90;;;;;;5009891;28;20634;-67
2023/04/08 12:27:18;;;;;;;7.65;6.85;;;11.60;99.90;;;;;;5010315;28;20222;-67
2023/04/08 12:29:45;;;;;;;7.25;6.55;;;11.50;99.90;;;;;;5009510;28;20203;-67
2023/04/08 12:32:12;;;;;;;8.88;6.45;;;11.50;99.90;;;;;;5010286;28;20198;-68
2023/04/08 12:34:39;;;;;;;8.98;7.07;;;11.50;99.90;;;;;;5009941;28;20226;-68
2023/04/08 12:37:05;;;;;;;8.93;6.95;;;11.40;99.90;;;;;;5010290;28;20273;-68
2023/04/08 12:39:33;;;;;;;8.20;7.00;;;11.40;99.90;;;;;;5009838;28;20688;-68
2023/04/08 12:42:00;;;;;;;9.02;7.00;;;11.30;99.90;;;;;;5009256;28;20206;-68
2023/04/08 12:44:27;;;;;;;9.07;7.15;;;11.20;99.90;;;;;;5009382;28;20206;-67
2023/04/08 12:46:54;;;;;;;9.68;7.07;;;11.00;99.90;;;;;;5006180;28;20602;-68
2023/04/08 12:49:21;;;;;;;8.57;7.68;;;10.90;99.90;;;;;;5008415;28;20285;-68
2023/04/08 12:51:48;;;;;;;7.93;6.57;;;10.80;99.90;;;;;;5009840;28;20646;-67
2023/04/08 12:54:14;;;;;;;9.00;7.05;;;10.70;99.90;;;;;;5009910;28;20195;-68